createdAt,value
2023-02-15T00:01:52.859Z,80.89
2023-02-15T00:04:21.617Z,81.38
2023-02-15T00:06:48.979Z,81.16
2023-02-15T00:09:15.773Z,81.01
2023-02-15T00:11:43.664Z,81.91
2023-02-15T00:14:22.023Z,82.02
2023-02-15T00:16:50.699Z,81.71
2023-02-15T00:19:21.644Z,81.78
2023-02-15T00:21:49.263Z,81.83
2023-02-15T00:24:18.421Z,81.65
2023-02-15T00:26:46.227Z,81.59
2023-02-15T00:29:14.808Z,81.25
2023-02-15T00:31:41.469Z,81.65
2023-02-15T00:34:11.215Z,82.07
2023-02-15T00:36:37.772Z,81.38
2023-02-15T00:39:05.577Z,81.52
2023-02-15T00:41:33.014Z,81.82
2023-02-15T00:43:59.539Z,80.98
2023-02-15T00:46:26.013Z,81.01
2023-02-15T00:48:52.499Z,81.55
2023-02-15T00:51:19.195Z,81.91
2023-02-15T00:53:45.634Z,81.87
2023-02-15T00:56:12.361Z,81.83
2023-02-15T00:58:38.871Z,81.68
2023-02-15T01:01:14.728Z,81.84
2023-02-15T01:03:45.033Z,81.64
2023-02-15T01:06:12.007Z,82.00
2023-02-15T01:08:39.613Z,81.83
2023-02-15T01:11:08.951Z,82.74
2023-02-15T01:13:36.433Z,81.80
2023-02-15T01:16:04.297Z,81.65
2023-02-15T01:18:31.425Z,82.77
2023-02-15T01:20:58.532Z,81.40
2023-02-15T01:23:25.076Z,81.90
2023-02-15T01:25:51.648Z,81.92
2023-02-15T01:28:18.116Z,82.55
2023-02-15T01:30:44.668Z,82.26
2023-02-15T01:33:18.478Z,82.94
2023-02-15T01:35:46.839Z,83.26
2023-02-15T01:38:15.073Z,83.05
2023-02-15T01:40:41.608Z,83.11
2023-02-15T01:43:12.998Z,83.51
2023-02-15T01:45:40.368Z,83.23
2023-02-15T01:48:23.649Z,82.75
2023-02-15T01:50:59.728Z,83.06
2023-02-15T01:53:33.010Z,82.98
2023-02-15T01:56:08.452Z,82.39
2023-02-15T01:58:36.301Z,82.06
2023-02-15T02:01:07.537Z,82.00
2023-02-15T02:04:12.038Z,82.29
2023-02-15T02:06:39.941Z,81.82
2023-02-15T02:09:06.760Z,82.87
2023-02-15T02:11:34.228Z,82.86
2023-02-15T02:14:00.764Z,84.24
2023-02-15T02:16:45.719Z,83.84
2023-02-15T02:19:21.056Z,84.54
2023-02-15T02:22:32.693Z,84.65
2023-02-15T02:25:14.287Z,84.83
2023-02-15T02:27:43.939Z,85.30
2023-02-15T02:30:50.049Z,85.61
2023-02-15T02:33:34.739Z,85.33
2023-02-15T02:36:17.507Z,85.93
2023-02-15T02:39:05.261Z,85.47
2023-02-15T02:41:46.517Z,84.45
2023-02-15T02:44:46.455Z,84.71
2023-02-15T02:47:33.402Z,85.20
2023-02-15T02:50:02.709Z,85.40
2023-02-15T02:52:50.267Z,85.18
2023-02-15T02:55:22.238Z,85.15
2023-02-15T02:57:54.744Z,85.40
2023-02-15T03:00:24.446Z,85.08
2023-02-15T03:02:56.766Z,85.31
2023-02-15T03:05:27.552Z,85.23
2023-02-15T03:07:57.876Z,85.24
2023-02-15T03:10:25.647Z,85.26
2023-02-15T03:12:53.270Z,84.91
2023-02-15T03:15:51.573Z,84.83
2023-02-15T03:18:21.161Z,85.18
2023-02-15T03:20:48.892Z,84.61
2023-02-15T03:23:20.984Z,84.81
2023-02-15T03:25:52.708Z,84.62
2023-02-15T03:28:29.748Z,84.59
2023-02-15T03:31:01.476Z,84.32
2023-02-15T03:33:29.913Z,84.77
2023-02-15T03:36:37.170Z,85.09
2023-02-15T03:39:19.680Z,85.10
2023-02-15T03:41:55.739Z,85.37
2023-02-15T03:44:30.764Z,85.30
2023-02-15T03:47:12.876Z,84.21
2023-02-15T03:49:54.203Z,84.98
2023-02-15T03:52:22.834Z,85.08
2023-02-15T03:54:50.718Z,84.81
2023-02-15T03:57:48.070Z,84.93
2023-02-15T04:00:35.896Z,84.84
2023-02-15T04:03:28.639Z,85.10
2023-02-15T04:05:55.159Z,84.51
2023-02-15T04:08:21.672Z,85.43
2023-02-15T04:10:53.952Z,85.30
2023-02-15T04:13:21.655Z,85.59
2023-02-15T04:16:07.597Z,85.13
2023-02-15T04:19:01.690Z,85.21
2023-02-15T04:21:49.573Z,85.08
2023-02-15T04:24:35.468Z,85.24
2023-02-15T04:27:03.341Z,85.08
2023-02-15T04:29:30.269Z,84.96
2023-02-15T04:31:58.805Z,84.95
2023-02-15T04:34:25.624Z,85.20
2023-02-15T04:36:52.220Z,85.22
2023-02-15T04:39:19.606Z,85.48
2023-02-15T04:41:46.601Z,85.56
2023-02-15T04:44:13.192Z,85.78
2023-02-15T04:46:39.685Z,86.05
2023-02-15T04:49:06.484Z,86.08
2023-02-15T04:51:32.933Z,86.29
2023-02-15T04:53:59.422Z,86.71
2023-02-15T04:56:25.948Z,86.59
2023-02-15T04:58:52.412Z,86.64
2023-02-15T05:01:19.196Z,86.13
2023-02-15T05:03:45.706Z,86.37
2023-02-15T05:06:12.226Z,86.29
2023-02-15T05:08:38.674Z,86.93
2023-02-15T05:11:05.129Z,86.26
2023-02-15T05:13:31.660Z,86.35
2023-02-15T05:15:58.257Z,86.80
2023-02-15T05:18:24.783Z,86.76
2023-02-15T05:20:51.206Z,86.97
2023-02-15T05:23:17.666Z,86.28
2023-02-15T05:26:07.419Z,86.47
2023-02-15T05:28:35.038Z,87.22
2023-02-15T05:31:16.484Z,86.84
2023-02-15T05:33:44.226Z,86.73
2023-02-15T05:36:11.365Z,86.33
2023-02-15T05:38:38.638Z,87.06
2023-02-15T05:41:06.086Z,86.99
2023-02-15T05:43:34.232Z,86.50
2023-02-15T05:46:01.964Z,86.68
2023-02-15T05:48:29.056Z,86.94
2023-02-15T05:51:00.357Z,86.76
2023-02-15T05:53:27.607Z,86.70
2023-02-15T05:55:55.006Z,87.09
2023-02-15T05:58:21.501Z,87.09
2023-02-15T06:00:48.001Z,86.86
2023-02-15T06:03:14.736Z,86.56
2023-02-15T06:05:41.228Z,86.61
2023-02-15T06:08:07.721Z,86.74
2023-02-15T06:10:34.230Z,86.39
2023-02-15T06:13:00.651Z,86.91
2023-02-15T06:15:27.292Z,86.79
2023-02-15T06:17:53.761Z,87.25
2023-02-15T06:20:20.237Z,86.88
2023-02-15T06:22:47.290Z,87.25
2023-02-15T06:25:13.853Z,87.37
2023-02-15T06:27:42.928Z,87.15
2023-02-15T06:30:11.183Z,86.56
2023-02-15T06:32:37.692Z,86.77
2023-02-15T06:35:04.895Z,86.98
2023-02-15T06:37:31.330Z,87.31
2023-02-15T06:39:57.827Z,86.84
2023-02-15T06:42:26.371Z,86.98
2023-02-15T06:44:52.916Z,87.14
2023-02-15T06:47:19.364Z,87.37
2023-02-15T06:49:45.839Z,87.26
2023-02-15T06:52:14.178Z,86.78
2023-02-15T06:54:40.825Z,86.81
2023-02-15T06:57:07.423Z,86.57
2023-02-15T06:59:33.997Z,87.05
2023-02-15T07:02:00.466Z,86.76
2023-02-15T07:04:27.003Z,87.06
2023-02-15T07:06:54.176Z,86.78
2023-02-15T07:09:20.838Z,87.19
2023-02-15T07:12:05.649Z,87.57
2023-02-15T07:14:32.871Z,86.86
2023-02-15T07:16:59.315Z,87.39
2023-02-15T07:19:25.874Z,87.13
2023-02-15T07:21:52.560Z,87.06
2023-02-15T07:24:19.018Z,87.57
2023-02-15T07:26:45.532Z,87.49
2023-02-15T07:29:11.992Z,86.67
2023-02-15T07:31:38.498Z,86.65
2023-02-15T07:34:07.487Z,87.17
2023-02-15T07:36:34.124Z,86.92
2023-02-15T07:39:00.565Z,87.69
2023-02-15T07:41:27.058Z,87.76
2023-02-15T07:43:53.622Z,87.68
2023-02-15T07:46:21.813Z,87.45
2023-02-15T07:48:48.991Z,87.10
2023-02-15T07:51:16.788Z,87.08
2023-02-15T07:53:43.376Z,87.54
2023-02-15T07:56:14.424Z,87.60
2023-02-15T07:58:53.270Z,87.14
2023-02-15T08:01:25.818Z,87.17
2023-02-15T08:03:52.686Z,87.11
2023-02-15T08:06:19.870Z,87.22
2023-02-15T08:08:46.398Z,86.62
2023-02-15T08:11:33.982Z,86.36
2023-02-15T08:14:11.557Z,85.79
2023-02-15T08:16:54.307Z,86.05
2023-02-15T08:19:23.716Z,86.72
2023-02-15T08:21:51.908Z,85.44
2023-02-15T08:24:21.040Z,85.36
2023-02-15T08:26:49.119Z,85.26
2023-02-15T08:29:17.672Z,85.27
2023-02-15T08:31:45.171Z,84.96
2023-02-15T08:34:15.369Z,84.94
2023-02-15T08:36:42.256Z,84.94
2023-02-15T08:39:08.973Z,84.96
2023-02-15T08:41:37.409Z,84.81
2023-02-15T08:44:06.665Z,84.76
2023-02-15T08:46:39.208Z,84.69
2023-02-15T08:49:06.152Z,84.54
2023-02-15T08:51:34.891Z,84.55
2023-02-15T08:54:04.828Z,84.48
2023-02-15T08:56:35.183Z,83.93
2023-02-15T08:59:02.520Z,83.93
2023-02-15T09:01:33.874Z,83.47
2023-02-15T09:04:10.385Z,83.90
2023-02-15T09:06:41.355Z,83.85
2023-02-15T09:09:08.791Z,83.51
2023-02-15T09:11:41.304Z,83.68
2023-02-15T09:14:10.794Z,82.85
2023-02-15T09:16:39.146Z,82.51
2023-02-15T09:19:06.897Z,82.68
2023-02-15T09:21:36.285Z,82.88
2023-02-15T09:24:06.263Z,82.53
2023-02-15T09:26:35.622Z,83.26
2023-02-15T09:29:04.397Z,82.88
2023-02-15T09:31:33.633Z,82.47
2023-02-15T09:34:04.022Z,82.59
2023-02-15T09:36:35.801Z,82.43
2023-02-15T09:39:13.708Z,82.05
2023-02-15T09:41:55.476Z,81.30
2023-02-15T09:44:28.024Z,81.79
2023-02-15T09:47:23.773Z,81.81
2023-02-15T09:50:04.096Z,81.83
2023-02-15T09:52:43.510Z,81.60
2023-02-15T09:55:18.686Z,80.97
2023-02-15T09:58:32.797Z,80.27
2023-02-15T10:01:14.554Z,80.43
2023-02-15T10:04:01.750Z,80.80
2023-02-15T10:06:45.160Z,81.08
2023-02-15T10:09:38.635Z,80.62
2023-02-15T10:12:16.905Z,80.27
2023-02-15T10:15:10.105Z,80.32
2023-02-15T10:17:55.279Z,80.10
2023-02-15T10:20:40.022Z,80.10
2023-02-15T10:23:24.693Z,79.52
2023-02-15T10:26:15.393Z,79.42
2023-02-15T10:28:50.236Z,79.24
2023-02-15T10:31:35.574Z,79.10
2023-02-15T10:34:20.246Z,77.86
2023-02-15T10:37:01.580Z,77.55
2023-02-15T10:40:05.460Z,78.07
2023-02-15T10:43:10.190Z,77.84
2023-02-15T10:45:55.825Z,77.64
2023-02-15T10:48:22.260Z,77.70
2023-02-15T10:51:04.541Z,77.93
2023-02-15T10:53:40.066Z,77.06
2023-02-15T10:56:09.514Z,77.80
2023-02-15T10:58:54.796Z,77.05
2023-02-15T11:01:30.398Z,76.70
2023-02-15T11:04:22.023Z,77.04
2023-02-15T11:06:56.664Z,76.79
2023-02-15T11:09:28.541Z,77.29
2023-02-15T11:12:00.606Z,76.29
2023-02-15T11:14:55.762Z,75.86
2023-02-15T11:17:27.295Z,75.98
2023-02-15T11:20:34.534Z,76.48
2023-02-15T11:23:03.509Z,76.37
2023-02-15T11:25:33.300Z,76.21
2023-02-15T11:28:04.315Z,75.77
2023-02-15T11:30:47.028Z,75.61
2023-02-15T11:33:23.266Z,76.08
2023-02-15T11:35:54.646Z,74.94
2023-02-15T11:38:29.811Z,75.41
2023-02-15T11:41:21.308Z,75.27
2023-02-15T11:44:11.493Z,75.13
2023-02-15T11:46:38.341Z,73.61
2023-02-15T11:49:29.743Z,73.68
2023-02-15T11:51:57.813Z,73.38
2023-02-15T11:54:30.625Z,74.15
2023-02-15T11:57:19.110Z,73.22
2023-02-15T11:59:53.356Z,73.71
2023-02-15T12:02:23.024Z,72.58
2023-02-15T12:04:58.968Z,72.65
2023-02-15T12:07:31.671Z,71.98
2023-02-15T12:10:15.106Z,70.63
2023-02-15T12:12:41.657Z,70.95
2023-02-15T12:15:10.369Z,69.25
2023-02-15T12:17:53.208Z,67.85
2023-02-15T12:20:19.613Z,68.19
2023-02-15T12:22:55.451Z,67.95
2023-02-15T12:25:27.127Z,68.93
2023-02-15T12:27:53.870Z,69.13
2023-02-15T12:30:25.924Z,67.94
2023-02-15T12:33:06.968Z,68.52
2023-02-15T12:35:36.395Z,67.65
2023-02-15T12:38:10.831Z,67.08
2023-02-15T12:40:39.433Z,67.93
2023-02-15T12:43:09.825Z,67.82
2023-02-15T12:45:38.613Z,66.60
2023-02-15T12:48:16.893Z,67.33
2023-02-15T12:50:54.797Z,67.14
2023-02-15T12:53:31.502Z,66.86
2023-02-15T12:56:00.603Z,66.96
2023-02-15T12:58:31.241Z,67.46
2023-02-15T13:01:25.469Z,65.93
2023-02-15T13:03:58.394Z,66.44
2023-02-15T13:06:26.214Z,66.11
2023-02-15T13:08:57.055Z,65.66
2023-02-15T13:11:31.344Z,65.38
2023-02-15T13:14:01.356Z,65.20
2023-02-15T13:16:49.364Z,65.74
2023-02-15T13:19:28.051Z,65.21
2023-02-15T13:21:56.930Z,64.05
2023-02-15T13:24:44.018Z,65.06
2023-02-15T13:27:17.554Z,64.78
2023-02-15T13:29:47.805Z,63.42
2023-02-15T13:32:37.966Z,65.11
2023-02-15T13:35:08.136Z,64.80
2023-02-15T13:37:52.916Z,65.13
2023-02-15T13:40:22.950Z,64.46
2023-02-15T13:43:00.606Z,63.19
2023-02-15T13:45:48.229Z,63.59
2023-02-15T13:48:50.799Z,63.51
2023-02-15T13:51:48.602Z,63.34
2023-02-15T13:54:33.356Z,64.32
2023-02-15T13:57:30.988Z,65.05
2023-02-15T14:00:04.964Z,64.74
2023-02-15T14:02:59.543Z,65.19
2023-02-15T14:05:28.877Z,64.91
2023-02-15T14:08:29.567Z,64.70
2023-02-15T14:11:21.203Z,65.36
2023-02-15T14:14:06.438Z,65.64
2023-02-15T14:16:40.271Z,66.13
2023-02-15T14:19:09.837Z,67.35
2023-02-15T14:21:54.480Z,67.93
2023-02-15T14:24:28.149Z,68.02
2023-02-15T14:27:15.867Z,67.73
2023-02-15T14:29:42.431Z,67.02
2023-02-15T14:32:18.208Z,66.95
2023-02-15T14:34:54.899Z,66.49
2023-02-15T14:37:51.101Z,66.44
2023-02-15T14:41:02.601Z,66.16
2023-02-15T14:44:00.365Z,66.36
2023-02-15T14:46:35.792Z,65.89
2023-02-15T14:49:08.181Z,65.57
2023-02-15T14:51:46.553Z,65.74
2023-02-15T14:54:22.133Z,66.16
2023-02-15T14:57:08.690Z,66.04
2023-02-15T14:59:40.317Z,66.43
2023-02-15T15:02:06.759Z,66.96
2023-02-15T15:04:38.302Z,66.06
2023-02-15T15:07:09.623Z,66.81
2023-02-15T15:09:39.119Z,66.70
2023-02-15T15:12:22.760Z,67.21
2023-02-15T15:14:51.063Z,66.76
2023-02-15T15:17:54.977Z,67.32
2023-02-15T15:20:28.046Z,68.19
2023-02-15T15:23:16.511Z,69.04
2023-02-15T15:25:45.671Z,69.64
2023-02-15T15:28:33.708Z,70.70
2023-02-15T15:31:23.472Z,71.22
2023-02-15T15:34:15.393Z,72.01
2023-02-15T15:37:09.926Z,71.58
2023-02-15T15:39:57.759Z,71.35
2023-02-15T15:43:27.974Z,70.98
2023-02-15T15:46:12.972Z,70.47
2023-02-15T15:48:41.965Z,70.09
2023-02-15T15:51:21.683Z,70.48
2023-02-15T15:53:54.018Z,70.35
2023-02-15T15:56:34.416Z,70.60
2023-02-15T15:59:08.336Z,70.43
2023-02-15T16:01:43.296Z,70.46
2023-02-15T16:04:23.771Z,70.83
2023-02-15T16:06:50.263Z,70.64
2023-02-15T16:09:19.997Z,71.00
2023-02-15T16:11:48.837Z,71.40
2023-02-15T16:14:20.922Z,71.66
2023-02-15T16:16:51.686Z,71.67
2023-02-15T16:19:23.265Z,71.89
2023-02-15T16:21:50.126Z,72.12
2023-02-15T16:24:38.219Z,72.52
2023-02-15T16:27:44.600Z,72.67
2023-02-15T16:30:28.862Z,73.25
2023-02-15T16:33:05.548Z,73.57
2023-02-15T16:35:32.245Z,73.35
2023-02-15T16:37:58.758Z,72.99
2023-02-15T16:40:25.178Z,73.30
2023-02-15T16:42:53.491Z,72.97
2023-02-15T16:45:23.408Z,73.76
2023-02-15T16:47:57.100Z,73.68
2023-02-15T16:50:30.294Z,74.40
2023-02-15T16:52:57.848Z,74.88
2023-02-15T16:55:28.411Z,74.66
2023-02-15T16:58:02.003Z,74.55
2023-02-15T17:00:33.327Z,74.78
2023-02-15T17:03:02.755Z,74.70
2023-02-15T17:05:40.931Z,75.06
2023-02-15T17:08:34.911Z,75.18
2023-02-15T17:11:04.886Z,75.38
2023-02-15T17:13:31.626Z,75.25
2023-02-15T17:16:01.474Z,75.61
2023-02-15T17:18:30.095Z,75.65
2023-02-15T17:21:00.931Z,75.19
2023-02-15T17:23:36.218Z,74.74
2023-02-15T17:26:17.092Z,74.80
2023-02-15T17:28:49.116Z,74.53
2023-02-15T17:31:18.552Z,74.66
2023-02-15T17:33:45.895Z,75.08
2023-02-15T17:36:23.546Z,75.44
2023-02-15T17:38:58.985Z,75.31
2023-02-15T17:41:27.351Z,75.25
2023-02-15T17:43:53.850Z,74.61
2023-02-15T17:46:23.560Z,74.63
2023-02-15T17:48:52.781Z,74.60
2023-02-15T17:51:20.753Z,74.75
2023-02-15T17:54:06.300Z,75.16
2023-02-15T17:56:33.678Z,75.42
2023-02-15T17:59:00.215Z,75.34
2023-02-15T18:01:45.346Z,75.11
2023-02-15T18:04:32.148Z,75.29
2023-02-15T18:07:18.917Z,75.36
2023-02-15T18:10:03.999Z,75.54
2023-02-15T18:12:36.673Z,75.83
2023-02-15T18:15:03.651Z,76.42
2023-02-15T18:17:34.136Z,76.89
2023-02-15T18:20:05.449Z,77.10
2023-02-15T18:22:32.258Z,77.58
2023-02-15T18:24:59.264Z,77.93
2023-02-15T18:27:25.736Z,77.43
2023-02-15T18:29:52.464Z,77.67
2023-02-15T18:32:34.747Z,77.36
2023-02-15T18:35:03.100Z,77.67
2023-02-15T18:37:33.098Z,77.70
2023-02-15T18:40:00.949Z,77.70
2023-02-15T18:42:34.180Z,77.47
2023-02-15T18:45:19.785Z,77.89
2023-02-15T18:47:47.151Z,77.80
2023-02-15T18:50:15.676Z,77.47
2023-02-15T18:52:45.110Z,77.55
2023-02-15T18:55:29.822Z,77.49
2023-02-15T18:57:57.539Z,77.33
2023-02-15T19:00:32.736Z,77.87
2023-02-15T19:03:00.360Z,77.74
2023-02-15T19:05:29.225Z,78.04
2023-02-15T19:07:57.405Z,78.38
2023-02-15T19:10:28.772Z,78.31
2023-02-15T19:12:56.038Z,78.08
2023-02-15T19:15:27.868Z,78.21
2023-02-15T19:17:54.599Z,78.60
2023-02-15T19:20:25.559Z,78.99
2023-02-15T19:22:55.350Z,79.46
2023-02-15T19:25:28.217Z,79.88
2023-02-15T19:27:55.536Z,79.62
2023-02-15T19:30:29.421Z,79.77
2023-02-15T19:32:57.601Z,79.75
2023-02-15T19:35:35.608Z,79.99
2023-02-15T19:38:07.582Z,79.91
2023-02-15T19:40:35.757Z,80.08
2023-02-15T19:43:03.694Z,80.03
2023-02-15T19:45:32.243Z,79.95
2023-02-15T19:48:01.781Z,79.71
2023-02-15T19:50:31.365Z,79.68
2023-02-15T19:52:57.974Z,80.22
2023-02-15T19:55:30.009Z,80.31
2023-02-15T19:57:58.596Z,80.38
2023-02-15T20:00:30.517Z,80.37
2023-02-15T20:02:59.066Z,80.29
2023-02-15T20:05:28.686Z,80.01
2023-02-15T20:07:55.946Z,80.16
2023-02-15T20:10:26.474Z,80.08
2023-02-15T20:12:55.004Z,80.03
2023-02-15T20:15:30.656Z,80.06
2023-02-15T20:17:59.210Z,79.85
2023-02-15T20:20:39.126Z,79.88
2023-02-15T20:23:07.139Z,79.98
2023-02-15T20:25:34.162Z,79.95
2023-02-15T20:28:01.593Z,80.01
2023-02-15T20:30:31.689Z,79.69
2023-02-15T20:32:58.628Z,79.58
2023-02-15T20:35:28.789Z,79.54
2023-02-15T20:37:59.537Z,79.67
2023-02-15T20:40:31.386Z,79.16
2023-02-15T20:42:57.936Z,78.98
2023-02-15T20:45:33.516Z,78.53
2023-02-15T20:48:01.766Z,78.22
2023-02-15T20:50:32.233Z,78.34
2023-02-15T20:53:00.404Z,78.23
2023-02-15T20:55:29.366Z,78.20
2023-02-15T20:57:57.079Z,78.21
2023-02-15T21:00:26.224Z,78.11
2023-02-15T21:02:58.112Z,77.97
2023-02-15T21:05:33.112Z,78.15
2023-02-15T21:08:00.519Z,78.63
2023-02-15T21:10:34.165Z,78.89
2023-02-15T21:13:01.365Z,78.72
2023-02-15T21:15:36.826Z,78.37
2023-02-15T21:18:05.984Z,78.82
2023-02-15T21:20:35.350Z,78.79
2023-02-15T21:23:05.040Z,78.88
2023-02-15T21:25:37.885Z,78.96
2023-02-15T21:28:05.988Z,79.10
2023-02-15T21:30:32.505Z,79.09
2023-02-15T21:32:58.971Z,78.98
2023-02-15T21:35:25.720Z,79.70
2023-02-15T21:37:53.097Z,79.48
2023-02-15T21:40:23.692Z,79.44
2023-02-15T21:43:08.783Z,79.11
2023-02-15T21:45:54.089Z,79.04
2023-02-15T21:48:23.779Z,79.76
2023-02-15T21:51:09.357Z,79.41
2023-02-15T21:53:40.655Z,79.96
2023-02-15T21:56:11.999Z,80.20
2023-02-15T21:58:38.513Z,80.13
2023-02-15T22:01:05.878Z,79.87
2023-02-15T22:03:35.778Z,80.19
2023-02-15T22:06:02.526Z,79.83
2023-02-15T22:08:29.408Z,80.38
2023-02-15T22:10:56.718Z,79.98
2023-02-15T22:13:28.464Z,80.17
2023-02-15T22:15:56.046Z,80.68
2023-02-15T22:18:28.282Z,79.97
2023-02-15T22:20:55.363Z,80.47
2023-02-15T22:23:22.323Z,80.43
2023-02-15T22:25:56.033Z,80.61
2023-02-15T22:28:31.311Z,80.46
2023-02-15T22:30:57.889Z,80.72
2023-02-15T22:33:27.600Z,81.12
2023-02-15T22:35:54.759Z,80.57
2023-02-15T22:38:21.444Z,80.82
2023-02-15T22:40:49.638Z,80.65
2023-02-15T22:43:35.331Z,80.77
2023-02-15T22:46:04.314Z,81.12
2023-02-15T22:48:30.884Z,80.97
2023-02-15T22:50:57.720Z,81.10
2023-02-15T22:53:24.461Z,81.25
2023-02-15T22:55:51.989Z,81.25
2023-02-15T22:58:22.524Z,81.23
2023-02-15T23:00:49.120Z,81.16
2023-02-15T23:03:20.746Z,81.13
2023-02-15T23:05:47.382Z,81.33
2023-02-15T23:08:14.497Z,81.47
2023-02-15T23:10:42.866Z,81.54
2023-02-15T23:13:25.611Z,81.38
2023-02-15T23:15:58.854Z,81.47
2023-02-15T23:18:37.892Z,81.75
2023-02-15T23:21:10.437Z,81.91
2023-02-15T23:23:41.760Z,82.10
2023-02-15T23:26:31.038Z,81.98
2023-02-15T23:29:00.156Z,81.74
2023-02-15T23:31:40.302Z,82.18
2023-02-15T23:34:14.722Z,81.97
2023-02-15T23:36:41.229Z,82.12
2023-02-15T23:39:41.628Z,82.55
2023-02-15T23:42:23.460Z,82.47
2023-02-15T23:44:51.099Z,82.41
2023-02-15T23:47:19.431Z,82.26
2023-02-15T23:49:46.197Z,82.62
2023-02-15T23:52:12.738Z,82.46
2023-02-15T23:54:39.184Z,82.15
2023-02-15T23:57:05.715Z,82.41
2023-02-15T23:59:32.596Z,82.30
